sensor_id;sensor_type;location;lat;lon;timestamp;temperature;humidity
22779;DHT22;11556;51.194;3.800;2023-12-28T00:00:24;11.10;99.90
22779;DHT22;11556;51.194;3.800;2023-12-28T00:02:49;11.10;99.90
22779;DHT22;11556;51.194;3.800;2023-12-28T00:05:15;11.00;99.90
22779;DHT22;11556;51.194;3.800;2023-12-28T00:07:40;11.10;99.90
22779;DHT22;11556;51.194;3.800;2023-12-28T00:10:06;11.10;99.90
22779;DHT22;11556;51.194;3.800;2023-12-28T00:12:32;11.10;99.90
22779;DHT22;11556;51.194;3.800;2023-12-28T00:14:58;11.10;99.90
22779;DHT22;11556;51.194;3.800;2023-12-28T00:17:23;11.10;99.90
22779;DHT22;11556;51.194;3.800;2023-12-28T00:19:49;11.20;99.90
22779;DHT22;11556;51.194;3.800;2023-12-28T00:22:15;11.20;99.90
22779;DHT22;11556;51.194;3.800;2023-12-28T00:24:40;11.10;99.90
22779;DHT22;11556;51.194;3.800;2023-12-28T00:27:06;11.10;99.90
22779;DHT22;11556;51.194;3.800;2023-12-28T00:29:32;11.20;99.90
22779;DHT22;11556;51.194;3.800;2023-12-28T00:31:59;11.10;99.90
22779;DHT22;11556;51.194;3.800;2023-12-28T00:34:25;11.10;99.90
22779;DHT22;11556;51.194;3.800;2023-12-28T00:36:50;11.20;99.90
22779;DHT22;11556;51.194;3.800;2023-12-28T00:39:16;11.10;99.90
22779;DHT22;11556;51.194;3.800;2023-12-28T00:41:42;11.10;99.90
22779;DHT22;11556;51.194;3.800;2023-12-28T00:44:07;11.10;99.90
22779;DHT22;11556;51.194;3.800;2023-12-28T00:46:35;11.10;99.90
22779;DHT22;11556;51.194;3.800;2023-12-28T00:49:01;11.10;99.90
22779;DHT22;11556;51.194;3.800;2023-12-28T00:51:26;11.10;99.90
22779;DHT22;11556;51.194;3.800;2023-12-28T00:53:52;11.10;99.90
22779;DHT22;11556;51.194;3.800;2023-12-28T00:56:18;11.10;99.90
22779;DHT22;11556;51.194;3.800;2023-12-28T00:58:46;11.10;99.90
22779;DHT22;11556;51.194;3.800;2023-12-28T01:01:11;11.00;99.90
22779;DHT22;11556;51.194;3.800;2023-12-28T01:03:37;11.00;99.90
22779;DHT22;11556;51.194;3.800;2023-12-28T01:06:04;11.00;99.90
22779;DHT22;11556;51.194;3.800;2023-12-28T01:08:30;11.00;99.90
22779;DHT22;11556;51.194;3.800;2023-12-28T01:10:56;11.00;99.90
22779;DHT22;11556;51.194;3.800;2023-12-28T01:13:21;11.00;99.90
22779;DHT22;11556;51.194;3.800;2023-12-28T01:15:47;11.00;99.90
22779;DHT22;11556;51.194;3.800;2023-12-28T01:18:12;11.00;99.90
22779;DHT22;11556;51.194;3.800;2023-12-28T01:20:38;11.00;99.90
22779;DHT22;11556;51.194;3.800;2023-12-28T01:23:04;10.90;99.90
22779;DHT22;11556;51.194;3.800;2023-12-28T01:25:29;10.90;99.90
22779;DHT22;11556;51.194;3.800;2023-12-28T01:27:55;11.00;99.90
22779;DHT22;11556;51.194;3.800;2023-12-28T01:30:21;11.00;99.90
22779;DHT22;11556;51.194;3.800;2023-12-28T01:32:46;11.10;99.90
22779;DHT22;11556;51.194;3.800;2023-12-28T01:35:12;11.00;99.90
22779;DHT22;11556;51.194;3.800;2023-12-28T01:37:37;11.00;99.90
22779;DHT22;11556;51.194;3.800;2023-12-28T01:40:04;11.00;99.90
22779;DHT22;11556;51.194;3.800;2023-12-28T01:42:29;11.00;99.90
22779;DHT22;11556;51.194;3.800;2023-12-28T01:44:59;11.00;99.90
22779;DHT22;11556;51.194;3.800;2023-12-28T01:47:25;11.10;99.90
22779;DHT22;11556;51.194;3.800;2023-12-28T01:49:52;11.10;99.90
22779;DHT22;11556;51.194;3.800;2023-12-28T01:52:18;11.10;99.90
22779;DHT22;11556;51.194;3.800;2023-12-28T01:54:44;11.00;99.90
22779;DHT22;11556;51.194;3.800;2023-12-28T01:57:11;11.00;99.90
22779;DHT22;11556;51.194;3.800;2023-12-28T01:59:37;11.00;99.90
22779;DHT22;11556;51.194;3.800;2023-12-28T02:02:03;10.90;99.90
22779;DHT22;11556;51.194;3.800;2023-12-28T02:04:29;10.90;99.90
22779;DHT22;11556;51.194;3.800;2023-12-28T02:06:57;10.90;99.90
22779;DHT22;11556;51.194;3.800;2023-12-28T02:09:23;10.90;99.90
22779;DHT22;11556;51.194;3.800;2023-12-28T02:11:49;10.90;99.90
22779;DHT22;11556;51.194;3.800;2023-12-28T02:14:15;10.90;99.90
22779;DHT22;11556;51.194;3.800;2023-12-28T02:16:46;10.90;99.90
22779;DHT22;11556;51.194;3.800;2023-12-28T02:22:13;10.90;99.90
22779;DHT22;11556;51.194;3.800;2023-12-28T02:27:27;11.00;99.90
22779;DHT22;11556;51.194;3.800;2023-12-28T02:29:53;11.00;99.90
22779;DHT22;11556;51.194;3.800;2023-12-28T02:32:24;10.90;99.90
22779;DHT22;11556;51.194;3.800;2023-12-28T02:34:57;11.10;99.90
22779;DHT22;11556;51.194;3.800;2023-12-28T02:37:25;11.00;99.90
22779;DHT22;11556;51.194;3.800;2023-12-28T02:39:51;11.00;99.90
22779;DHT22;11556;51.194;3.800;2023-12-28T02:42:18;11.00;99.90
22779;DHT22;11556;51.194;3.800;2023-12-28T02:44:44;11.00;99.90
22779;DHT22;11556;51.194;3.800;2023-12-28T02:47:10;10.90;99.90
22779;DHT22;11556;51.194;3.800;2023-12-28T02:49:35;10.90;99.90
22779;DHT22;11556;51.194;3.800;2023-12-28T02:52:01;10.90;99.90
22779;DHT22;11556;51.194;3.800;2023-12-28T02:54:27;10.90;99.90
22779;DHT22;11556;51.194;3.800;2023-12-28T02:56:53;10.80;99.90
22779;DHT22;11556;51.194;3.800;2023-12-28T02:59:18;11.00;99.90
22779;DHT22;11556;51.194;3.800;2023-12-28T03:01:44;11.00;99.90
22779;DHT22;11556;51.194;3.800;2023-12-28T03:04:09;11.00;99.90
22779;DHT22;11556;51.194;3.800;2023-12-28T03:06:35;10.90;99.90
22779;DHT22;11556;51.194;3.800;2023-12-28T03:09:01;10.90;99.90
22779;DHT22;11556;51.194;3.800;2023-12-28T03:11:26;10.90;99.90
22779;DHT22;11556;51.194;3.800;2023-12-28T03:13:52;10.90;99.90
22779;DHT22;11556;51.194;3.800;2023-12-28T03:16:18;10.90;99.90
22779;DHT22;11556;51.194;3.800;2023-12-28T03:18:43;10.90;99.90
22779;DHT22;11556;51.194;3.800;2023-12-28T03:21:09;10.90;99.90
22779;DHT22;11556;51.194;3.800;2023-12-28T03:23:35;10.80;99.90
22779;DHT22;11556;51.194;3.800;2023-12-28T03:26:01;10.90;99.90
22779;DHT22;11556;51.194;3.800;2023-12-28T03:28:26;10.90;99.90
22779;DHT22;11556;51.194;3.800;2023-12-28T03:30:52;10.80;99.90
22779;DHT22;11556;51.194;3.800;2023-12-28T03:33:17;10.80;99.90
22779;DHT22;11556;51.194;3.800;2023-12-28T03:35:43;10.80;99.90
22779;DHT22;11556;51.194;3.800;2023-12-28T03:38:09;10.90;99.90
22779;DHT22;11556;51.194;3.800;2023-12-28T03:40:34;10.90;99.90
22779;DHT22;11556;51.194;3.800;2023-12-28T03:43:00;10.90;99.90
22779;DHT22;11556;51.194;3.800;2023-12-28T03:45:25;10.90;99.90
22779;DHT22;11556;51.194;3.800;2023-12-28T03:47:51;10.90;99.90
22779;DHT22;11556;51.194;3.800;2023-12-28T03:50:17;10.90;99.90
22779;DHT22;11556;51.194;3.800;2023-12-28T03:52:42;10.80;99.90
22779;DHT22;11556;51.194;3.800;2023-12-28T03:55:08;10.90;99.90
22779;DHT22;11556;51.194;3.800;2023-12-28T03:57:34;11.00;99.90
22779;DHT22;11556;51.194;3.800;2023-12-28T03:59:59;11.00;99.90
22779;DHT22;11556;51.194;3.800;2023-12-28T04:02:25;11.00;99.90
22779;DHT22;11556;51.194;3.800;2023-12-28T04:04:56;11.10;99.90
22779;DHT22;11556;51.194;3.800;2023-12-28T04:07:24;11.10;99.90
22779;DHT22;11556;51.194;3.800;2023-12-28T04:09:49;11.20;99.90
22779;DHT22;11556;51.194;3.800;2023-12-28T04:12:15;11.20;99.90
22779;DHT22;11556;51.194;3.800;2023-12-28T04:14:41;11.20;99.90
22779;DHT22;11556;51.194;3.800;2023-12-28T04:17:06;11.20;99.90
22779;DHT22;11556;51.194;3.800;2023-12-28T04:19:32;11.10;99.90
22779;DHT22;11556;51.194;3.800;2023-12-28T04:21:57;11.00;99.90
22779;DHT22;11556;51.194;3.800;2023-12-28T04:24:23;11.10;99.90
22779;DHT22;11556;51.194;3.800;2023-12-28T04:26:49;11.10;99.90
22779;DHT22;11556;51.194;3.800;2023-12-28T04:29:14;11.10;99.90
22779;DHT22;11556;51.194;3.800;2023-12-28T04:31:41;11.10;99.90
22779;DHT22;11556;51.194;3.800;2023-12-28T04:34:09;11.00;99.90
22779;DHT22;11556;51.194;3.800;2023-12-28T04:36:44;11.00;99.90
22779;DHT22;11556;51.194;3.800;2023-12-28T04:39:10;10.90;99.90
22779;DHT22;11556;51.194;3.800;2023-12-28T04:41:37;11.10;99.90
22779;DHT22;11556;51.194;3.800;2023-12-28T04:44:03;11.20;99.90
22779;DHT22;11556;51.194;3.800;2023-12-28T04:46:29;11.20;99.90
22779;DHT22;11556;51.194;3.800;2023-12-28T04:48:54;11.30;99.90
22779;DHT22;11556;51.194;3.800;2023-12-28T04:51:20;11.30;99.90
22779;DHT22;11556;51.194;3.800;2023-12-28T04:53:45;11.30;99.90
22779;DHT22;11556;51.194;3.800;2023-12-28T04:56:11;11.30;99.90
22779;DHT22;11556;51.194;3.800;2023-12-28T04:58:37;11.30;99.90
22779;DHT22;11556;51.194;3.800;2023-12-28T05:01:02;11.30;99.90
22779;DHT22;11556;51.194;3.800;2023-12-28T05:03:28;11.30;99.90
22779;DHT22;11556;51.194;3.800;2023-12-28T05:05:54;11.20;99.90
22779;DHT22;11556;51.194;3.800;2023-12-28T05:08:19;11.20;99.90
22779;DHT22;11556;51.194;3.800;2023-12-28T05:10:45;11.20;99.90
22779;DHT22;11556;51.194;3.800;2023-12-28T05:13:11;11.10;99.90
22779;DHT22;11556;51.194;3.800;2023-12-28T05:15:36;11.10;99.90
22779;DHT22;11556;51.194;3.800;2023-12-28T05:18:02;11.10;99.90
22779;DHT22;11556;51.194;3.800;2023-12-28T05:20:29;11.20;99.90
22779;DHT22;11556;51.194;3.800;2023-12-28T05:22:55;11.10;99.90
22779;DHT22;11556;51.194;3.800;2023-12-28T05:25:20;11.10;99.90
22779;DHT22;11556;51.194;3.800;2023-12-28T05:27:46;11.20;99.90
22779;DHT22;11556;51.194;3.800;2023-12-28T05:30:12;11.30;99.90
22779;DHT22;11556;51.194;3.800;2023-12-28T05:32:37;11.30;99.90
22779;DHT22;11556;51.194;3.800;2023-12-28T05:35:03;11.30;99.90
22779;DHT22;11556;51.194;3.800;2023-12-28T05:37:29;11.40;99.90
22779;DHT22;11556;51.194;3.800;2023-12-28T05:39:55;11.40;99.90
22779;DHT22;11556;51.194;3.800;2023-12-28T05:42:21;11.30;99.90
22779;DHT22;11556;51.194;3.800;2023-12-28T05:44:46;11.30;99.90
22779;DHT22;11556;51.194;3.800;2023-12-28T05:47:12;11.40;99.90
22779;DHT22;11556;51.194;3.800;2023-12-28T05:49:38;11.30;99.90
22779;DHT22;11556;51.194;3.800;2023-12-28T05:52:03;11.30;99.90
22779;DHT22;11556;51.194;3.800;2023-12-28T05:54:29;11.30;99.90
22779;DHT22;11556;51.194;3.800;2023-12-28T05:56:55;11.20;99.90
22779;DHT22;11556;51.194;3.800;2023-12-28T05:59:21;11.20;99.90
22779;DHT22;11556;51.194;3.800;2023-12-28T06:01:47;11.20;99.90
22779;DHT22;11556;51.194;3.800;2023-12-28T06:04:13;11.10;99.90
22779;DHT22;11556;51.194;3.800;2023-12-28T06:06:39;11.10;99.90
22779;DHT22;11556;51.194;3.800;2023-12-28T06:09:04;11.10;99.90
22779;DHT22;11556;51.194;3.800;2023-12-28T06:11:30;11.10;99.90
22779;DHT22;11556;51.194;3.800;2023-12-28T06:13:56;11.00;99.90
22779;DHT22;11556;51.194;3.800;2023-12-28T06:16:22;10.90;99.90
22779;DHT22;11556;51.194;3.800;2023-12-28T06:18:48;10.90;99.90
22779;DHT22;11556;51.194;3.800;2023-12-28T06:21:14;10.90;99.90
22779;DHT22;11556;51.194;3.800;2023-12-28T06:23:40;10.80;99.90
22779;DHT22;11556;51.194;3.800;2023-12-28T06:26:05;10.80;99.90
22779;DHT22;11556;51.194;3.800;2023-12-28T06:28:32;10.80;99.90
22779;DHT22;11556;51.194;3.800;2023-12-28T06:30:59;10.70;99.90
22779;DHT22;11556;51.194;3.800;2023-12-28T06:33:27;10.70;99.90
22779;DHT22;11556;51.194;3.800;2023-12-28T06:35:53;10.70;99.90
22779;DHT22;11556;51.194;3.800;2023-12-28T06:38:19;10.60;99.90
22779;DHT22;11556;51.194;3.800;2023-12-28T06:40:45;10.80;99.90
22779;DHT22;11556;51.194;3.800;2023-12-28T06:43:10;10.70;99.90
22779;DHT22;11556;51.194;3.800;2023-12-28T06:45:36;10.70;99.90
22779;DHT22;11556;51.194;3.800;2023-12-28T06:48:02;10.70;99.90
22779;DHT22;11556;51.194;3.800;2023-12-28T06:50:27;10.60;99.90
22779;DHT22;11556;51.194;3.800;2023-12-28T06:52:53;10.60;99.90
22779;DHT22;11556;51.194;3.800;2023-12-28T06:55:18;10.70;99.90
22779;DHT22;11556;51.194;3.800;2023-12-28T06:57:44;10.70;99.90
22779;DHT22;11556;51.194;3.800;2023-12-28T07:00:10;10.70;99.90
22779;DHT22;11556;51.194;3.800;2023-12-28T07:02:36;10.80;99.90
22779;DHT22;11556;51.194;3.800;2023-12-28T07:05:01;10.60;99.90
22779;DHT22;11556;51.194;3.800;2023-12-28T07:07:29;10.70;99.90
22779;DHT22;11556;51.194;3.800;2023-12-28T07:09:55;10.60;99.90
22779;DHT22;11556;51.194;3.800;2023-12-28T07:12:20;10.70;99.90
22779;DHT22;11556;51.194;3.800;2023-12-28T07:14:46;10.70;99.90
22779;DHT22;11556;51.194;3.800;2023-12-28T07:17:12;10.60;99.90
22779;DHT22;11556;51.194;3.800;2023-12-28T07:19:45;10.70;99.90
22779;DHT22;11556;51.194;3.800;2023-12-28T07:22:11;10.70;99.90
22779;DHT22;11556;51.194;3.800;2023-12-28T07:24:36;10.60;99.90
22779;DHT22;11556;51.194;3.800;2023-12-28T07:27:02;10.70;99.90
22779;DHT22;11556;51.194;3.800;2023-12-28T07:29:28;10.70;99.90
22779;DHT22;11556;51.194;3.800;2023-12-28T07:31:54;10.70;99.90
22779;DHT22;11556;51.194;3.800;2023-12-28T07:34:19;10.70;99.90
22779;DHT22;11556;51.194;3.800;2023-12-28T07:36:45;10.60;99.90
22779;DHT22;11556;51.194;3.800;2023-12-28T07:39:11;10.60;99.90
22779;DHT22;11556;51.194;3.800;2023-12-28T07:41:37;10.60;99.90
22779;DHT22;11556;51.194;3.800;2023-12-28T07:44:03;10.70;99.90
22779;DHT22;11556;51.194;3.800;2023-12-28T07:46:28;10.60;99.90
22779;DHT22;11556;51.194;3.800;2023-12-28T07:48:54;10.60;99.90
22779;DHT22;11556;51.194;3.800;2023-12-28T07:51:19;10.60;99.90
22779;DHT22;11556;51.194;3.800;2023-12-28T07:53:45;10.60;99.90
22779;DHT22;11556;51.194;3.800;2023-12-28T07:56:11;10.60;99.90
22779;DHT22;11556;51.194;3.800;2023-12-28T07:58:37;10.70;99.90
22779;DHT22;11556;51.194;3.800;2023-12-28T08:01:09;10.90;99.90
22779;DHT22;11556;51.194;3.800;2023-12-28T08:03:35;11.00;99.90
22779;DHT22;11556;51.194;3.800;2023-12-28T08:06:01;11.10;99.90
22779;DHT22;11556;51.194;3.800;2023-12-28T08:08:26;11.10;99.90
22779;DHT22;11556;51.194;3.800;2023-12-28T08:10:52;11.20;99.90
22779;DHT22;11556;51.194;3.800;2023-12-28T08:13:18;11.30;99.90
22779;DHT22;11556;51.194;3.800;2023-12-28T08:15:43;11.30;99.90
22779;DHT22;11556;51.194;3.800;2023-12-28T08:18:11;11.30;99.90
22779;DHT22;11556;51.194;3.800;2023-12-28T08:20:37;11.30;99.90
22779;DHT22;11556;51.194;3.800;2023-12-28T08:23:03;11.40;99.90
22779;DHT22;11556;51.194;3.800;2023-12-28T08:25:29;11.50;99.90
22779;DHT22;11556;51.194;3.800;2023-12-28T08:27:55;11.60;99.90
22779;DHT22;11556;51.194;3.800;2023-12-28T08:30:20;11.50;99.90
22779;DHT22;11556;51.194;3.800;2023-12-28T08:32:46;11.50;99.90
22779;DHT22;11556;51.194;3.800;2023-12-28T08:35:12;11.40;99.90
22779;DHT22;11556;51.194;3.800;2023-12-28T08:37:38;11.40;99.90
22779;DHT22;11556;51.194;3.800;2023-12-28T08:40:04;11.60;99.90
22779;DHT22;11556;51.194;3.800;2023-12-28T08:42:30;11.50;99.90
22779;DHT22;11556;51.194;3.800;2023-12-28T08:44:55;11.50;99.90
22779;DHT22;11556;51.194;3.800;2023-12-28T08:47:21;11.40;99.90
22779;DHT22;11556;51.194;3.800;2023-12-28T08:49:47;11.40;99.90
22779;DHT22;11556;51.194;3.800;2023-12-28T08:52:13;11.40;99.90
22779;DHT22;11556;51.194;3.800;2023-12-28T08:54:40;11.50;99.90
22779;DHT22;11556;51.194;3.800;2023-12-28T08:57:06;11.60;99.90
22779;DHT22;11556;51.194;3.800;2023-12-28T08:59:36;11.60;99.90
22779;DHT22;11556;51.194;3.800;2023-12-28T09:02:01;11.70;99.90
22779;DHT22;11556;51.194;3.800;2023-12-28T09:04:27;11.60;99.90
22779;DHT22;11556;51.194;3.800;2023-12-28T09:06:53;11.70;99.90
22779;DHT22;11556;51.194;3.800;2023-12-28T09:09:18;11.70;99.90
22779;DHT22;11556;51.194;3.800;2023-12-28T09:11:44;11.70;99.90
22779;DHT22;11556;51.194;3.800;2023-12-28T09:14:09;11.80;99.90
22779;DHT22;11556;51.194;3.800;2023-12-28T09:16:35;11.90;99.90
22779;DHT22;11556;51.194;3.800;2023-12-28T09:19:01;11.90;99.90
22779;DHT22;11556;51.194;3.800;2023-12-28T09:21:27;12.10;99.90
22779;DHT22;11556;51.194;3.800;2023-12-28T09:23:52;12.20;99.90
22779;DHT22;11556;51.194;3.800;2023-12-28T09:26:18;12.30;99.90
22779;DHT22;11556;51.194;3.800;2023-12-28T09:28:44;12.40;99.90
22779;DHT22;11556;51.194;3.800;2023-12-28T09:31:10;12.50;99.90
22779;DHT22;11556;51.194;3.800;2023-12-28T09:33:36;12.70;99.90
22779;DHT22;11556;51.194;3.800;2023-12-28T09:36:05;12.80;99.90
22779;DHT22;11556;51.194;3.800;2023-12-28T09:38:30;13.10;99.90
22779;DHT22;11556;51.194;3.800;2023-12-28T09:40:58;13.10;99.90
22779;DHT22;11556;51.194;3.800;2023-12-28T09:43:32;13.20;99.90
22779;DHT22;11556;51.194;3.800;2023-12-28T09:46:06;13.30;99.90
22779;DHT22;11556;51.194;3.800;2023-12-28T09:48:33;13.50;99.90
22779;DHT22;11556;51.194;3.800;2023-12-28T09:50:59;13.50;99.90
22779;DHT22;11556;51.194;3.800;2023-12-28T09:53:26;13.50;99.90
22779;DHT22;11556;51.194;3.800;2023-12-28T09:55:52;13.50;99.90
22779;DHT22;11556;51.194;3.800;2023-12-28T09:58:19;13.40;99.90
22779;DHT22;11556;51.194;3.800;2023-12-28T10:00:46;13.40;99.90
22779;DHT22;11556;51.194;3.800;2023-12-28T10:03:15;13.50;99.90
22779;DHT22;11556;51.194;3.800;2023-12-28T10:05:42;13.60;99.90
22779;DHT22;11556;51.194;3.800;2023-12-28T10:08:08;13.50;99.90
22779;DHT22;11556;51.194;3.800;2023-12-28T10:10:34;13.40;99.90
22779;DHT22;11556;51.194;3.800;2023-12-28T10:13:00;13.30;99.90
22779;DHT22;11556;51.194;3.800;2023-12-28T10:15:26;13.10;99.90
22779;DHT22;11556;51.194;3.800;2023-12-28T10:17:52;13.20;99.90
22779;DHT22;11556;51.194;3.800;2023-12-28T10:20:18;13.20;99.90
22779;DHT22;11556;51.194;3.800;2023-12-28T10:22:44;13.30;99.90
22779;DHT22;11556;51.194;3.800;2023-12-28T10:25:10;13.40;99.90
22779;DHT22;11556;51.194;3.800;2023-12-28T10:27:40;13.40;99.90
22779;DHT22;11556;51.194;3.800;2023-12-28T10:30:08;13.50;99.90
22779;DHT22;11556;51.194;3.800;2023-12-28T10:32:34;13.40;99.90
22779;DHT22;11556;51.194;3.800;2023-12-28T10:35:00;13.20;99.90
22779;DHT22;11556;51.194;3.800;2023-12-28T10:37:26;13.10;99.90
22779;DHT22;11556;51.194;3.800;2023-12-28T10:39:54;13.20;99.90
22779;DHT22;11556;51.194;3.800;2023-12-28T10:42:44;13.10;99.90
22779;DHT22;11556;51.194;3.800;2023-12-28T10:45:12;13.10;99.90
22779;DHT22;11556;51.194;3.800;2023-12-28T10:47:42;13.10;99.90
22779;DHT22;11556;51.194;3.800;2023-12-28T10:50:11;13.20;99.90
22779;DHT22;11556;51.194;3.800;2023-12-28T10:52:38;13.40;99.90
22779;DHT22;11556;51.194;3.800;2023-12-28T10:58:14;13.40;99.90
22779;DHT22;11556;51.194;3.800;2023-12-28T11:00:55;13.40;99.90
22779;DHT22;11556;51.194;3.800;2023-12-28T11:03:28;13.30;99.90
22779;DHT22;11556;51.194;3.800;2023-12-28T11:05:56;13.30;99.90
22779;DHT22;11556;51.194;3.800;2023-12-28T11:08:23;13.40;99.90
22779;DHT22;11556;51.194;3.800;2023-12-28T11:10:50;13.30;99.90
22779;DHT22;11556;51.194;3.800;2023-12-28T11:13:21;13.50;99.90
22779;DHT22;11556;51.194;3.800;2023-12-28T11:15:48;13.60;99.90
22779;DHT22;11556;51.194;3.800;2023-12-28T11:18:16;13.50;99.90
22779;DHT22;11556;51.194;3.800;2023-12-28T11:20:46;13.40;99.90
22779;DHT22;11556;51.194;3.800;2023-12-28T11:23:12;13.20;99.90
22779;DHT22;11556;51.194;3.800;2023-12-28T11:25:38;13.10;99.90
22779;DHT22;11556;51.194;3.800;2023-12-28T11:28:11;13.10;99.90
22779;DHT22;11556;51.194;3.800;2023-12-28T11:30:37;13.10;99.90
22779;DHT22;11556;51.194;3.800;2023-12-28T11:33:04;13.10;99.90
22779;DHT22;11556;51.194;3.800;2023-12-28T11:35:39;13.00;99.90
22779;DHT22;11556;51.194;3.800;2023-12-28T11:38:07;12.90;99.90
22779;DHT22;11556;51.194;3.800;2023-12-28T11:40:41;13.00;99.90
22779;DHT22;11556;51.194;3.800;2023-12-28T11:43:19;13.00;99.90
22779;DHT22;11556;51.194;3.800;2023-12-28T11:45:54;13.00;99.90
22779;DHT22;11556;51.194;3.800;2023-12-28T11:48:25;13.10;99.90
22779;DHT22;11556;51.194;3.800;2023-12-28T11:50:57;13.20;99.90
22779;DHT22;11556;51.194;3.800;2023-12-28T11:53:24;13.10;99.90
22779;DHT22;11556;51.194;3.800;2023-12-28T11:55:50;13.00;99.90
22779;DHT22;11556;51.194;3.800;2023-12-28T11:58:17;13.00;99.90
22779;DHT22;11556;51.194;3.800;2023-12-28T12:00:43;13.00;99.90
22779;DHT22;11556;51.194;3.800;2023-12-28T12:03:12;13.00;99.90
22779;DHT22;11556;51.194;3.800;2023-12-28T12:05:39;12.90;99.90
22779;DHT22;11556;51.194;3.800;2023-12-28T12:08:06;13.00;99.90
22779;DHT22;11556;51.194;3.800;2023-12-28T12:10:34;13.00;99.90
22779;DHT22;11556;51.194;3.800;2023-12-28T12:13:00;13.10;99.90
22779;DHT22;11556;51.194;3.800;2023-12-28T12:15:25;13.00;99.90
22779;DHT22;11556;51.194;3.800;2023-12-28T12:17:51;13.20;99.90
22779;DHT22;11556;51.194;3.800;2023-12-28T12:20:17;13.30;99.90
22779;DHT22;11556;51.194;3.800;2023-12-28T12:22:43;13.50;99.90
22779;DHT22;11556;51.194;3.800;2023-12-28T12:25:09;13.50;99.90
22779;DHT22;11556;51.194;3.800;2023-12-28T12:27:36;13.60;99.90
22779;DHT22;11556;51.194;3.800;2023-12-28T12:30:04;13.80;99.90
22779;DHT22;11556;51.194;3.800;2023-12-28T12:32:30;13.70;99.90
22779;DHT22;11556;51.194;3.800;2023-12-28T12:34:57;13.80;99.90
22779;DHT22;11556;51.194;3.800;2023-12-28T12:37:23;13.90;99.90
22779;DHT22;11556;51.194;3.800;2023-12-28T12:39:49;14.00;99.90
22779;DHT22;11556;51.194;3.800;2023-12-28T12:42:15;14.00;99.90
22779;DHT22;11556;51.194;3.800;2023-12-28T12:44:42;14.00;99.90
22779;DHT22;11556;51.194;3.800;2023-12-28T12:47:08;13.90;99.90
22779;DHT22;11556;51.194;3.800;2023-12-28T12:49:33;13.70;99.90
22779;DHT22;11556;51.194;3.800;2023-12-28T12:52:00;13.60;99.90
22779;DHT22;11556;51.194;3.800;2023-12-28T12:54:26;13.60;99.90
22779;DHT22;11556;51.194;3.800;2023-12-28T12:56:52;13.60;99.90
22779;DHT22;11556;51.194;3.800;2023-12-28T12:59:18;13.70;99.90
22779;DHT22;11556;51.194;3.800;2023-12-28T13:01:44;13.80;99.90
22779;DHT22;11556;51.194;3.800;2023-12-28T13:04:16;13.80;99.90
22779;DHT22;11556;51.194;3.800;2023-12-28T13:06:42;13.70;99.90
22779;DHT22;11556;51.194;3.800;2023-12-28T13:09:08;13.70;99.90
22779;DHT22;11556;51.194;3.800;2023-12-28T13:11:36;13.80;99.90
22779;DHT22;11556;51.194;3.800;2023-12-28T13:14:02;13.80;99.90
22779;DHT22;11556;51.194;3.800;2023-12-28T13:16:28;13.80;99.90
22779;DHT22;11556;51.194;3.800;2023-12-28T13:18:54;13.90;99.90
22779;DHT22;11556;51.194;3.800;2023-12-28T13:21:19;13.90;99.90
22779;DHT22;11556;51.194;3.800;2023-12-28T13:23:45;13.90;99.90
22779;DHT22;11556;51.194;3.800;2023-12-28T13:26:11;14.00;99.90
22779;DHT22;11556;51.194;3.800;2023-12-28T13:28:36;14.00;99.90
22779;DHT22;11556;51.194;3.800;2023-12-28T13:31:02;14.00;99.90
22779;DHT22;11556;51.194;3.800;2023-12-28T13:33:29;13.90;99.90
22779;DHT22;11556;51.194;3.800;2023-12-28T13:35:55;13.80;99.90
22779;DHT22;11556;51.194;3.800;2023-12-28T13:38:21;13.70;99.90
22779;DHT22;11556;51.194;3.800;2023-12-28T13:40:47;13.50;99.90
22779;DHT22;11556;51.194;3.800;2023-12-28T13:43:13;13.60;99.90
22779;DHT22;11556;51.194;3.800;2023-12-28T13:45:38;13.50;99.90
22779;DHT22;11556;51.194;3.800;2023-12-28T13:48:04;13.50;99.90
22779;DHT22;11556;51.194;3.800;2023-12-28T13:50:30;13.40;99.90
22779;DHT22;11556;51.194;3.800;2023-12-28T13:52:57;13.40;99.90
22779;DHT22;11556;51.194;3.800;2023-12-28T13:55:22;13.30;99.90
22779;DHT22;11556;51.194;3.800;2023-12-28T13:57:48;13.20;99.90
22779;DHT22;11556;51.194;3.800;2023-12-28T14:00:14;13.20;99.90
22779;DHT22;11556;51.194;3.800;2023-12-28T14:02:40;13.20;99.90
22779;DHT22;11556;51.194;3.800;2023-12-28T14:05:06;13.10;99.90
22779;DHT22;11556;51.194;3.800;2023-12-28T14:07:32;13.10;99.90
22779;DHT22;11556;51.194;3.800;2023-12-28T14:09:58;13.10;99.90
22779;DHT22;11556;51.194;3.800;2023-12-28T14:12:24;13.10;99.90
22779;DHT22;11556;51.194;3.800;2023-12-28T14:14:49;13.20;99.90
22779;DHT22;11556;51.194;3.800;2023-12-28T14:17:15;13.30;99.90
22779;DHT22;11556;51.194;3.800;2023-12-28T14:19:45;13.40;99.90
22779;DHT22;11556;51.194;3.800;2023-12-28T14:22:11;13.30;99.90
22779;DHT22;11556;51.194;3.800;2023-12-28T14:24:37;13.40;99.90
22779;DHT22;11556;51.194;3.800;2023-12-28T14:27:04;13.30;99.90
22779;DHT22;11556;51.194;3.800;2023-12-28T14:29:29;13.30;99.90
22779;DHT22;11556;51.194;3.800;2023-12-28T14:31:55;13.20;99.90
22779;DHT22;11556;51.194;3.800;2023-12-28T14:34:21;13.20;99.90
22779;DHT22;11556;51.194;3.800;2023-12-28T14:36:48;13.10;99.90
22779;DHT22;11556;51.194;3.800;2023-12-28T14:39:16;13.10;99.90
22779;DHT22;11556;51.194;3.800;2023-12-28T14:41:45;13.10;99.90
22779;DHT22;11556;51.194;3.800;2023-12-28T14:44:11;13.10;99.90
22779;DHT22;11556;51.194;3.800;2023-12-28T14:46:37;13.00;99.90
22779;DHT22;11556;51.194;3.800;2023-12-28T14:49:03;13.10;99.90
22779;DHT22;11556;51.194;3.800;2023-12-28T14:51:32;13.10;99.90
22779;DHT22;11556;51.194;3.800;2023-12-28T14:53:57;13.10;99.90
22779;DHT22;11556;51.194;3.800;2023-12-28T14:56:23;13.00;99.90
22779;DHT22;11556;51.194;3.800;2023-12-28T14:58:49;13.00;99.90
22779;DHT22;11556;51.194;3.800;2023-12-28T15:01:15;12.80;99.90
22779;DHT22;11556;51.194;3.800;2023-12-28T15:03:41;12.90;99.90
22779;DHT22;11556;51.194;3.800;2023-12-28T15:06:07;12.80;99.90
22779;DHT22;11556;51.194;3.800;2023-12-28T15:08:33;12.80;99.90
22779;DHT22;11556;51.194;3.800;2023-12-28T15:10:59;12.70;99.90
22779;DHT22;11556;51.194;3.800;2023-12-28T15:13:26;12.70;99.90
22779;DHT22;11556;51.194;3.800;2023-12-28T15:15:52;12.70;99.90
22779;DHT22;11556;51.194;3.800;2023-12-28T15:18:18;12.60;99.90
22779;DHT22;11556;51.194;3.800;2023-12-28T15:20:48;12.50;99.90
22779;DHT22;11556;51.194;3.800;2023-12-28T15:23:15;12.60;99.90
22779;DHT22;11556;51.194;3.800;2023-12-28T15:25:44;12.50;99.90
22779;DHT22;11556;51.194;3.800;2023-12-28T15:28:09;12.40;99.90
22779;DHT22;11556;51.194;3.800;2023-12-28T15:30:35;12.40;99.90
22779;DHT22;11556;51.194;3.800;2023-12-28T15:33:01;12.40;99.90